Time;durP1;ratioP1;P1;durP2;ratioP2;P2;SDS_P1;SDS_P2;PMS_P1;PMS_P2;Temp;Humidity;BMP_temperature;BMP_pressure;BME280_temperature;BME280_humidity;BME280_pressure;Samples;Min_cycle;Max_cycle;Signal;HPM_P1;HPM_P2
2024/01/09 00:02:23;;;;;;;10.03;5.03;;;;;;;3.97;86.83;96945.66;4889940;29;20223;-64
2024/01/09 00:04:51;;;;;;;12.60;5.93;;;;;;;4.11;86.23;96953.88;4890499;29;20223;-65
2024/01/09 00:07:18;;;;;;;10.07;4.83;;;;;;;4.21;86.34;96959.63;4890058;29;20208;-63
2024/01/09 00:09:45;;;;;;;13.90;5.87;;;;;;;4.26;85.86;96957.81;4890670;29;20271;-64
2024/01/09 00:12:12;;;;;;;11.20;4.67;;;;;;;4.12;86.16;96959.84;4890315;29;20207;-64
2024/01/09 00:14:39;;;;;;;9.30;4.97;;;;;;;4.25;85.60;96961.25;4890143;29;20206;-64
2024/01/09 00:17:06;;;;;;;8.33;4.70;;;;;;;4.27;86.28;96964.63;4890466;29;20254;-64
2024/01/09 00:19:34;;;;;;;9.57;5.27;;;;;;;4.18;86.22;96964.00;4890188;29;20232;-64
2024/01/09 00:22:02;;;;;;;7.97;4.50;;;;;;;4.12;85.72;96978.59;4894622;29;20279;-64
2024/01/09 00:24:29;;;;;;;9.73;5.17;;;;;;;4.16;85.22;96965.75;4893353;29;20207;-64
2024/01/09 00:26:56;;;;;;;8.43;4.93;;;;;;;4.04;86.30;96966.84;4894173;29;20274;-66
2024/01/09 00:29:24;;;;;;;12.60;4.93;;;;;;;4.21;84.79;96974.16;4893440;29;20229;-67
2024/01/09 00:31:51;;;;;;;8.63;4.50;;;;;;;4.35;84.75;96972.97;4893520;29;20219;-64
2024/01/09 00:34:18;;;;;;;7.50;4.67;;;;;;;4.33;84.73;96974.72;4893970;29;20203;-64
2024/01/09 00:36:45;;;;;;;7.70;5.00;;;;;;;4.33;84.96;96981.59;4907752;29;20240;-64
2024/01/09 00:39:12;;;;;;;7.33;4.23;;;;;;;4.23;84.63;96965.56;4893920;29;20621;-64
2024/01/09 00:41:39;;;;;;;7.43;4.83;;;;;;;4.27;83.65;96972.31;4893419;29;20235;-64
2024/01/09 00:44:06;;;;;;;6.27;4.37;;;;;;;4.22;82.72;96969.03;4892670;29;20303;-64
2024/01/09 00:46:34;;;;;;;7.47;4.93;;;;;;;4.04;84.06;96988.19;4893245;29;20287;-64
2024/01/09 00:49:01;;;;;;;8.07;4.67;;;;;;;4.41;84.16;96980.53;4892116;29;20224;-64
2024/01/09 00:51:28;;;;;;;9.30;5.47;;;;;;;4.61;82.81;96980.09;4893670;29;20354;-65
2024/01/09 00:53:55;;;;;;;7.57;5.07;;;;;;;4.55;83.04;96983.66;4892965;29;20206;-64
2024/01/09 00:56:23;;;;;;;7.53;4.70;;;;;;;4.52;82.27;96976.00;4893650;29;20700;-65
2024/01/09 00:58:50;;;;;;;7.47;4.53;;;;;;;4.34;83.67;96983.28;4875929;29;20342;-63
2024/01/09 01:01:17;;;;;;;6.50;4.33;;;;;;;4.35;82.69;96972.97;4894014;29;20698;-65
2024/01/09 01:03:44;;;;;;;7.57;4.23;;;;;;;4.23;82.96;96980.94;4892814;29;20208;-65
2024/01/09 01:06:12;;;;;;;8.50;4.93;;;;;;;4.28;82.75;96976.56;4893154;29;20195;-65
2024/01/09 01:08:39;;;;;;;6.53;4.40;;;;;;;4.17;82.69;96987.91;4893290;29;20211;-64
2024/01/09 01:11:06;;;;;;;8.93;5.23;;;;;;;3.98;83.92;96972.09;4893014;29;20226;-64
2024/01/09 01:13:33;;;;;;;6.20;4.30;;;;;;;4.23;83.89;96998.88;4891974;29;20236;-67
2024/01/09 01:16:00;;;;;;;10.57;5.67;;;;;;;3.91;84.32;96999.56;4890936;29;20241;-63
2024/01/09 01:18:27;;;;;;;10.67;5.53;;;;;;;3.96;83.23;97004.59;4893118;29;20723;-63
2024/01/09 01:20:54;;;;;;;8.50;5.30;;;;;;;3.85;83.26;96993.72;4892727;29;20207;-66
2024/01/09 01:23:22;;;;;;;9.40;5.50;;;;;;;3.82;84.21;96996.34;4892941;29;20733;-64
2024/01/09 01:25:49;;;;;;;8.53;5.13;;;;;;;3.90;83.04;96973.97;4891243;29;20214;-64
2024/01/09 01:28:16;;;;;;;10.03;5.73;;;;;;;4.00;81.24;96990.84;4892962;29;20226;-64
2024/01/09 01:30:43;;;;;;;10.30;5.37;;;;;;;3.93;81.58;96973.91;4892293;29;20214;-64
2024/01/09 01:33:10;;;;;;;7.40;5.17;;;;;;;3.99;80.30;96984.03;4892119;29;20242;-64
2024/01/09 01:35:37;;;;;;;10.17;5.87;;;;;;;3.90;80.54;96987.63;4892925;29;20207;-64
2024/01/09 01:38:04;;;;;;;6.73;4.60;;;;;;;3.86;80.25;96988.56;4892229;29;20237;-65
2024/01/09 01:40:31;;;;;;;9.13;5.93;;;;;;;3.92;79.83;96982.47;4893045;29;20252;-65
2024/01/09 01:42:58;;;;;;;7.43;4.80;;;;;;;4.09;80.55;96991.50;4892771;29;20763;-64
2024/01/09 01:45:26;;;;;;;8.37;5.43;;;;;;;3.84;79.64;96994.59;4891066;29;20218;-65
2024/01/09 01:47:53;;;;;;;6.93;5.00;;;;;;;3.53;79.82;96986.66;4875715;29;20679;-65
2024/01/09 01:50:21;;;;;;;10.47;6.03;;;;;;;3.85;78.88;96988.59;4892040;29;20211;-64
2024/01/09 01:52:50;;;;;;;10.43;5.67;;;;;;;3.67;78.26;96991.53;4893069;29;20676;-64
2024/01/09 01:55:20;;;;;;;9.17;5.40;;;;;;;3.73;76.56;97005.03;4890306;29;20212;-68
2024/01/09 01:57:49;;;;;;;7.30;5.13;;;;;;;3.34;77.37;97008.34;4892495;29;20841;-66
2024/01/09 02:00:17;;;;;;;9.37;5.30;;;;;;;3.44;76.78;97011.59;4892137;29;20203;-68
2024/01/09 02:02:47;;;;;;;11.77;6.60;;;;;;;3.35;76.80;97004.94;4892212;29;20208;-67
2024/01/09 02:05:16;;;;;;;10.63;5.83;;;;;;;2.99;77.29;97001.28;4890999;29;20267;-67
2024/01/09 02:07:47;;;;;;;10.70;5.80;;;;;;;3.04;77.52;97011.44;4891922;29;20579;-66
2024/01/09 02:10:14;;;;;;;9.57;6.00;;;;;;;3.30;77.30;97022.94;4893138;29;20623;-67
2024/01/09 02:12:42;;;;;;;8.07;5.23;;;;;;;3.12;77.64;96969.53;4891633;29;20301;-68
2024/01/09 02:15:10;;;;;;;10.27;6.37;;;;;;;3.46;78.36;97023.50;4892086;29;20242;-66
2024/01/09 02:17:38;;;;;;;10.43;6.03;;;;;;;3.39;76.50;97011.69;4891936;29;20195;-66
2024/01/09 02:20:07;;;;;;;10.33;6.17;;;;;;;3.66;76.43;97036.78;4891839;29;20230;-68
2024/01/09 02:22:34;;;;;;;8.70;5.20;;;;;;;3.71;76.67;97045.19;4906585;29;20699;-65
2024/01/09 02:25:02;;;;;;;9.90;5.90;;;;;;;3.49;77.95;97035.38;4891395;29;20218;-69
2024/01/09 02:27:42;;;;;;;10.93;6.40;;;;;;;3.65;77.54;97045.31;4892549;29;20211;-65
2024/01/09 02:30:10;;;;;;;8.37;5.57;;;;;;;3.62;77.71;97026.63;4891702;29;20537;-65
2024/01/09 02:32:38;;;;;;;10.20;6.27;;;;;;;3.73;77.10;97043.44;4891741;29;20701;-66
2024/01/09 02:35:06;;;;;;;8.30;5.30;;;;;;;3.73;76.74;97022.97;4891816;29;20203;-67
2024/01/09 02:37:33;;;;;;;10.63;5.77;;;;;;;3.65;76.10;97039.34;4891960;29;20248;-65
2024/01/09 02:40:00;;;;;;;11.60;6.13;;;;;;;3.62;76.26;97040.28;4892148;29;20352;-66
2024/01/09 02:42:28;;;;;;;9.93;5.90;;;;;;;3.52;77.36;97048.13;4890117;29;20779;-65
2024/01/09 02:44:55;;;;;;;10.47;5.90;;;;;;;3.52;77.96;97049.00;4891947;29;20628;-67
2024/01/09 02:47:24;;;;;;;9.73;5.67;;;;;;;3.70;76.28;97045.22;4891232;29;20207;-67
2024/01/09 02:49:51;;;;;;;9.97;6.07;;;;;;;3.69;75.65;97048.69;4891397;29;20199;-66
2024/01/09 02:52:18;;;;;;;9.13;5.60;;;;;;;3.37;76.53;97017.69;4891321;29;20192;-65
2024/01/09 02:54:45;;;;;;;10.23;5.93;;;;;;;3.58;76.33;97048.03;4905263;29;20206;-64
2024/01/09 02:57:13;;;;;;;7.97;5.57;;;;;;;3.35;76.52;97048.44;4891617;29;20221;-64
2024/01/09 02:59:40;;;;;;;10.53;5.97;;;;;;;3.29;74.45;97041.72;4890998;29;20233;-64
2024/01/09 03:02:07;;;;;;;11.13;6.10;;;;;;;2.78;75.34;97037.44;4890170;29;20785;-64
2024/01/09 03:04:34;;;;;;;9.47;5.93;;;;;;;2.98;76.15;97045.66;4890625;29;20282;-69
2024/01/09 03:07:02;;;;;;;10.90;6.00;;;;;;;3.00;75.40;97055.84;4891184;29;20234;-64
2024/01/09 03:09:31;;;;;;;11.03;5.93;;;;;;;2.96;75.77;97038.88;4890805;29;20195;-63
2024/01/09 03:11:59;;;;;;;8.47;5.33;;;;;;;3.01;75.52;97039.66;4891236;29;20226;-65
2024/01/09 03:14:26;;;;;;;12.47;6.47;;;;;;;3.23;75.09;97030.75;4891209;29;20203;-64
2024/01/09 03:16:53;;;;;;;9.03;5.67;;;;;;;3.43;74.09;97022.69;4890515;29;20230;-64
2024/01/09 03:19:20;;;;;;;10.00;5.80;;;;;;;3.39;72.42;97013.41;4891558;29;20245;-67
2024/01/09 03:21:48;;;;;;;8.83;5.10;;;;;;;3.41;nan;97014.22;4890548;29;20695;-67
2024/01/09 03:24:16;;;;;;;9.57;5.70;;;;;;;3.62;70.82;97018.94;4891182;29;20199;-68
2024/01/09 03:26:43;;;;;;;8.07;5.27;;;;;;;3.67;71.70;97025.66;4890705;29;20639;-64
2024/01/09 03:29:11;;;;;;;8.20;5.67;;;;;;;3.55;71.85;97037.81;4890675;29;20686;-67
2024/01/09 03:31:38;;;;;;;9.17;5.30;;;;;;;3.71;71.49;97046.94;4890955;29;20775;-64
2024/01/09 03:34:05;;;;;;;9.40;5.70;;;;;;;3.63;72.68;97059.88;4890786;29;20287;-64
2024/01/09 03:36:32;;;;;;;10.13;5.93;;;;;;;3.60;72.03;97036.03;4891075;29;20191;-65
2024/01/09 03:38:59;;;;;;;10.17;6.03;;;;;;;3.59;72.75;97062.50;4888676;29;20258;-65
2024/01/09 03:41:26;;;;;;;11.47;6.47;;;;;;;3.39;73.19;97067.13;4891407;29;20714;-67
2024/01/09 03:43:53;;;;;;;9.90;6.10;;;;;;;3.41;74.04;97055.16;4890530;29;20199;-65
2024/01/09 03:46:20;;;;;;;12.80;7.83;;;;;;;3.39;74.55;97060.31;4890485;29;20678;-68
2024/01/09 03:48:48;;;;;;;11.80;6.90;;;;;;;3.44;74.01;97062.78;4890585;29;20212;-67
2024/01/09 03:51:15;;;;;;;13.47;7.27;;;;;;;3.29;74.43;97076.69;4890142;29;20214;-68
2024/01/09 03:53:42;;;;;;;9.07;5.27;;;;;;;2.72;74.59;97022.19;4890866;29;20198;-66
2024/01/09 03:56:09;;;;;;;10.97;6.77;;;;;;;3.34;74.43;97084.31;4889824;29;20208;-69
2024/01/09 03:58:37;;;;;;;9.37;5.77;;;;;;;3.20;74.84;97080.25;4890710;29;20198;-66
2024/01/09 04:01:04;;;;;;;9.13;6.10;;;;;;;3.08;75.81;97077.88;4890138;29;20344;-65
2024/01/09 04:03:31;;;;;;;8.30;5.87;;;;;;;3.03;74.63;97089.91;4890812;29;20207;-67
2024/01/09 04:05:58;;;;;;;8.80;5.60;;;;;;;3.06;75.86;97110.31;4890608;29;20199;-69
2024/01/09 04:08:26;;;;;;;11.03;6.50;;;;;;;2.94;75.21;97128.41;4890187;29;20243;-68
2024/01/09 04:10:53;;;;;;;11.63;6.50;;;;;;;2.63;75.43;97142.50;4890650;29;20263;-67
2024/01/09 04:13:20;;;;;;;10.03;6.00;;;;;;;2.29;77.08;97159.94;4889958;29;20207;-68
2024/01/09 04:15:47;;;;;;;11.37;7.23;;;;;;;2.52;77.61;97167.31;4890167;29;20286;-64
2024/01/09 04:18:14;;;;;;;11.47;7.13;;;;;;;2.66;75.30;97185.06;4888975;29;20282;-66
2024/01/09 04:20:41;;;;;;;14.93;7.37;;;;;;;2.46;76.14;97191.25;4890354;29;20235;-66
2024/01/09 04:23:09;;;;;;;11.47;7.20;;;;;;;2.41;74.41;97190.47;4890832;29;20675;-68
2024/01/09 04:25:36;;;;;;;8.80;5.27;;;;;;;2.14;74.34;97205.25;4889963;29;20763;-70
2024/01/09 04:28:03;;;;;;;12.10;7.10;;;;;;;1.97;74.16;97202.88;4890468;29;20199;-67
2024/01/09 04:30:30;;;;;;;15.67;7.53;;;;;;;1.93;73.94;97188.44;4889391;29;20195;-65
2024/01/09 04:32:57;;;;;;;12.83;6.97;;;;;;;1.67;75.31;97189.53;4890441;29;20200;-67
2024/01/09 04:35:25;;;;;;;14.43;8.03;;;;;;;1.91;74.84;97187.63;4888547;29;20226;-65
2024/01/09 04:37:52;;;;;;;13.37;8.27;;;;;;;2.00;73.58;97192.59;4890291;29;20213;-65
2024/01/09 04:40:19;;;;;;;16.30;7.40;;;;;;;1.54;73.71;97118.22;4888266;29;20286;-64
2024/01/09 04:42:46;;;;;;;14.27;7.93;;;;;;;2.09;74.42;97184.00;4889913;29;20622;-64
2024/01/09 04:45:13;;;;;;;10.93;6.83;;;;;;;2.42;73.17;97207.50;4884873;29;20267;-64
2024/01/09 04:47:41;;;;;;;11.07;6.33;;;;;;;2.34;73.39;97216.09;4879075;29;20203;-66
2024/01/09 04:50:09;;;;;;;10.43;6.93;;;;;;;2.19;72.69;97223.91;4881450;29;20719;-65
2024/01/09 04:52:37;;;;;;;15.00;7.70;;;;;;;2.19;71.58;97235.00;4878906;29;20224;-64
2024/01/09 04:55:05;;;;;;;12.93;7.17;;;;;;;2.33;71.26;97235.69;4881036;29;20195;-64
2024/01/09 04:57:32;;;;;;;14.00;6.97;;;;;;;2.61;71.38;97227.72;4881145;29;20623;-67
2024/01/09 04:59:59;;;;;;;12.53;6.93;;;;;;;2.68;70.32;97235.28;4883269;29;20216;-66
2024/01/09 05:02:27;;;;;;;13.43;7.33;;;;;;;2.80;71.21;97244.53;4879061;29;20659;-67
2024/01/09 05:04:54;;;;;;;12.37;6.90;;;;;;;2.49;71.24;97218.50;4883631;29;20718;-65
2024/01/09 05:07:21;;;;;;;12.10;7.03;;;;;;;2.76;70.82;97240.34;4893141;29;20203;-65
2024/01/09 05:09:49;;;;;;;13.13;7.03;;;;;;;2.35;71.45;97238.22;4892660;29;20199;-65
2024/01/09 05:12:16;;;;;;;13.50;6.73;;;;;;;2.60;71.58;97231.16;4893498;29;20308;-64
2024/01/09 05:14:43;;;;;;;13.67;7.57;;;;;;;2.91;70.44;97238.41;4892836;29;20710;-65
2024/01/09 05:17:10;;;;;;;10.60;7.00;;;;;;;2.79;70.16;97233.47;4888580;29;20204;-64
2024/01/09 05:19:37;;;;;;;13.40;7.20;;;;;;;2.87;71.11;97239.31;4884190;29;20247;-65
2024/01/09 05:22:04;;;;;;;29.10;7.30;;;;;;;2.90;69.53;97235.88;4880577;29;20287;-63
2024/01/09 05:24:31;;;;;;;18.37;8.53;;;;;;;2.81;69.59;97247.06;4874349;29;20254;-68
2024/01/09 05:26:58;;;;;;;16.17;8.50;;;;;;;2.79;70.00;97253.91;4873368;29;20259;-64
2024/01/09 05:29:26;;;;;;;11.80;7.10;;;;;;;2.81;69.69;97264.13;4874007;29;20227;-65
2024/01/09 05:31:53;;;;;;;14.50;8.20;;;;;;;2.83;70.48;97263.25;4873754;29;20280;-65
2024/01/09 05:34:20;;;;;;;13.30;7.93;;;;;;;2.71;69.43;97253.16;4873891;29;20202;-64
2024/01/09 05:36:48;;;;;;;12.77;7.53;;;;;;;2.09;71.25;97247.88;4873836;29;20690;-66
2024/01/09 05:39:16;;;;;;;13.17;7.53;;;;;;;1.88;71.00;97197.84;4873632;29;20235;-64
2024/01/09 05:41:42;;;;;;;14.50;7.37;;;;;;;2.46;71.00;97272.19;4874002;29;20196;-65
2024/01/09 05:44:10;;;;;;;19.17;9.27;;;;;;;2.66;70.18;97267.69;4872863;29;20613;-64
2024/01/09 05:46:37;;;;;;;17.97;9.33;;;;;;;2.84;69.89;97262.38;4873896;29;20213;-66
2024/01/09 05:49:04;;;;;;;15.47;9.23;;;;;;;2.87;70.15;97266.59;4871738;29;20298;-65
2024/01/09 05:51:32;;;;;;;15.13;8.77;;;;;;;2.90;69.07;97264.88;4873394;29;20212;-66
2024/01/09 05:53:59;;;;;;;15.20;9.17;;;;;;;2.93;69.75;97264.81;4873687;29;20279;-65
2024/01/09 05:56:26;;;;;;;16.83;10.17;;;;;;;2.89;70.67;97260.59;4873101;29;20208;-67
2024/01/09 05:58:53;;;;;;;16.37;10.00;;;;;;;2.56;71.94;97266.09;4873634;29;20208;-65
2024/01/09 06:01:20;;;;;;;19.73;11.97;;;;;;;2.66;71.78;97248.97;4873239;29;20781;-68
2024/01/09 06:03:47;;;;;;;18.23;10.27;;;;;;;2.65;71.23;97260.91;4873959;29;20663;-64
2024/01/09 06:06:14;;;;;;;13.47;7.93;;;;;;;2.54;71.02;97249.94;4873214;29;20192;-65
2024/01/09 06:08:41;;;;;;;16.83;9.20;;;;;;;2.59;71.83;97225.19;4873707;29;20283;-69
2024/01/09 06:11:09;;;;;;;19.13;10.83;;;;;;;2.71;72.01;97259.97;4873512;29;20546;-66
2024/01/09 06:13:36;;;;;;;18.37;8.80;;;;;;;2.85;70.97;97263.22;4873353;29;20790;-67
2024/01/09 06:16:03;;;;;;;15.77;8.53;;;;;;;2.73;70.30;97259.09;4873489;29;20259;-68
2024/01/09 06:18:30;;;;;;;18.13;9.53;;;;;;;2.77;71.11;97252.25;4872773;29;20199;-65
2024/01/09 06:20:57;;;;;;;15.27;9.37;;;;;;;2.87;70.81;97251.25;4873554;29;20224;-65
2024/01/09 06:23:24;;;;;;;13.13;8.30;;;;;;;2.79;69.91;97251.38;4872677;29;20211;-64
2024/01/09 06:25:51;;;;;;;16.33;8.93;;;;;;;2.64;69.88;97277.09;4873232;29;20224;-66
2024/01/09 06:28:20;;;;;;;17.17;8.77;;;;;;;2.97;69.65;97279.25;4871640;29;20204;-64
2024/01/09 06:30:47;;;;;;;15.40;8.63;;;;;;;2.60;69.80;97265.22;4872859;29;20215;-65
2024/01/09 06:33:14;;;;;;;12.17;7.27;;;;;;;2.85;68.56;97281.13;4873246;29;20211;-65
2024/01/09 06:35:41;;;;;;;18.47;10.07;;;;;;;2.80;68.58;97286.31;4872548;29;20650;-65
2024/01/09 06:38:09;;;;;;;15.43;8.97;;;;;;;2.85;68.49;97291.34;4873486;29;20213;-64
2024/01/09 06:40:36;;;;;;;13.50;8.47;;;;;;;2.96;67.82;97290.38;4872314;29;20237;-65
2024/01/09 06:43:03;;;;;;;13.23;7.43;;;;;;;2.95;66.96;97295.47;4873574;29;20370;-64
2024/01/09 06:45:30;;;;;;;14.80;7.60;;;;;;;2.90;66.65;97303.25;4871323;29;20199;-65
2024/01/09 06:47:57;;;;;;;12.77;7.87;;;;;;;2.96;66.17;97313.38;4872723;29;20200;-65
2024/01/09 06:50:25;;;;;;;10.93;5.93;;;;;;;2.96;65.14;97320.22;4872828;29;20196;-64
2024/01/09 06:53:03;;;;;;;13.87;6.77;;;;;;;2.79;63.97;97329.78;4872849;29;20196;-66
2024/01/09 06:55:30;;;;;;;12.17;7.03;;;;;;;2.66;65.12;97334.16;4873046;29;20200;-66
2024/01/09 06:57:57;;;;;;;14.37;8.03;;;;;;;2.73;65.08;97332.41;4871976;29;20839;-66
2024/01/09 07:00:25;;;;;;;19.90;9.73;;;;;;;2.74;65.74;97324.69;4872622;29;20274;-66
2024/01/09 07:02:52;;;;;;;27.33;12.60;;;;;;;2.76;65.82;97327.25;4872339;29;20214;-66
2024/01/09 07:05:19;;;;;;;19.27;9.67;;;;;;;2.99;65.83;97356.81;4871085;29;20196;-66
2024/01/09 07:07:46;;;;;;;13.90;7.13;;;;;;;3.14;64.71;97351.53;4872428;29;20223;-68
2024/01/09 07:10:17;;;;;;;14.53;7.93;;;;;;;3.12;65.01;97347.28;4871713;29;20266;-66
2024/01/09 07:12:46;;;;;;;11.80;7.23;;;;;;;3.19;65.18;97361.72;4872686;29;20299;-66
2024/01/09 07:15:14;;;;;;;15.27;7.63;;;;;;;3.27;64.56;97383.81;4870051;29;20299;-66
2024/01/09 07:17:46;;;;;;;17.30;8.57;;;;;;;3.43;64.27;97375.91;4872184;29;20200;-65
2024/01/09 07:20:14;;;;;;;16.33;7.27;;;;;;;3.19;64.40;97348.94;4870031;29;20249;-68
2024/01/09 07:22:43;;;;;;;18.13;8.67;;;;;;;3.31;64.67;97374.38;4870363;29;20200;-67
2024/01/09 07:25:15;;;;;;;14.73;7.83;;;;;;;3.22;64.02;97377.88;4872218;29;20283;-65
2024/01/09 07:27:43;;;;;;;18.30;8.93;;;;;;;3.29;64.78;97386.34;4871499;29;20204;-65
2024/01/09 07:30:11;;;;;;;18.63;8.73;;;;;;;3.40;64.68;97381.09;4871897;29;20203;-65
2024/01/09 07:32:39;;;;;;;10.83;7.00;;;;;;;3.10;63.93;97343.91;4871677;29;20251;-69
2024/01/09 07:35:07;;;;;;;17.27;8.17;;;;;;;3.55;63.15;97380.88;4871092;29;20279;-67
2024/01/09 07:37:34;;;;;;;11.47;6.73;;;;;;;3.28;62.81;97365.00;4854728;29;20775;-66
2024/01/09 07:40:04;;;;;;;17.03;8.60;;;;;;;3.51;62.44;97386.91;4871978;29;20251;-65
2024/01/09 07:42:31;;;;;;;15.33;8.03;;;;;;;3.56;61.34;97386.00;4871867;29;20767;-67
2024/01/09 07:45:14;;;;;;;20.57;7.63;;;;;;;3.24;60.17;97399.19;4870102;29;20210;-65
2024/01/09 07:47:41;;;;;;;21.97;11.07;;;;;;;2.99;59.69;97402.88;4872436;29;20211;-64
2024/01/09 07:50:08;;;;;;;12.27;7.57;;;;;;;2.82;58.66;97376.63;4871577;29;20279;-66
2024/01/09 07:52:35;;;;;;;13.93;6.47;;;;;;;2.96;58.57;97405.47;4871950;29;20208;-66
2024/01/09 07:55:03;;;;;;;11.90;7.50;;;;;;;2.97;58.70;97396.06;4871509;29;20637;-65
2024/01/09 07:57:30;;;;;;;16.93;8.07;;;;;;;2.68;59.07;97404.03;4871542;29;20196;-64
2024/01/09 07:59:58;;;;;;;14.40;8.70;;;;;;;2.76;61.01;97411.63;4871175;29;20239;-67
2024/01/09 08:02:28;;;;;;;20.93;7.97;;;;;;;2.72;58.65;97398.00;4871349;29;20275;-67
2024/01/09 08:04:55;;;;;;;21.97;11.10;;;;;;;2.61;58.61;97401.53;4871470;29;20267;-64
2024/01/09 08:07:22;;;;;;;14.37;8.10;;;;;;;1.96;60.78;97420.75;4871217;29;20251;-64
2024/01/09 08:09:49;;;;;;;14.87;7.90;;;;;;;2.45;61.13;97424.66;4871824;29;20200;-66
2024/01/09 08:12:16;;;;;;;19.30;9.43;;;;;;;2.77;61.04;97432.06;4869658;29;20275;-65
2024/01/09 08:14:44;;;;;;;14.93;8.03;;;;;;;2.44;63.19;97440.03;4870993;29;20203;-67
2024/01/09 08:17:11;;;;;;;13.53;7.50;;;;;;;2.41;64.27;97447.72;4871749;29;20204;-66
2024/01/09 08:19:38;;;;;;;18.13;9.23;;;;;;;2.73;64.10;97448.31;4871089;29;20575;-67
2024/01/09 08:22:05;;;;;;;18.57;8.17;;;;;;;2.70;62.45;97434.72;4871831;29;20590;-65
2024/01/09 08:24:32;;;;;;;11.30;6.90;;;;;;;2.88;62.12;97466.09;4870958;29;20264;-65
2024/01/09 08:26:59;;;;;;;12.97;7.60;;;;;;;3.03;60.70;97465.91;4871520;29;20199;-65
2024/01/09 08:29:27;;;;;;;11.37;6.53;;;;;;;2.79;57.61;97471.25;4870971;29;20208;-65
2024/01/09 08:31:54;;;;;;;10.43;6.50;;;;;;;2.18;56.71;97475.13;4871675;29;20203;-67
2024/01/09 08:34:22;;;;;;;17.63;7.17;;;;;;;1.98;57.86;97484.63;4871336;29;20195;-64
2024/01/09 08:36:49;;;;;;;15.70;8.37;;;;;;;2.25;59.23;97484.44;4871115;29;20189;-65
2024/01/09 08:39:16;;;;;;;9.70;5.50;;;;;;;2.00;58.42;97470.97;4881785;29;20210;-63
2024/01/09 08:41:44;;;;;;;9.47;5.93;;;;;;;2.08;56.40;97479.44;4891874;29;20322;-64
2024/01/09 08:44:11;;;;;;;9.70;6.07;;;;;;;1.76;56.59;97488.09;4893858;29;20309;-66
2024/01/09 08:46:38;;;;;;;13.50;7.80;;;;;;;1.31;57.78;97499.31;4891508;29;20253;-66
2024/01/09 08:49:05;;;;;;;15.37;7.73;;;;;;;1.11;58.74;97519.78;4893290;29;20211;-65
2024/01/09 08:51:33;;;;;;;14.87;7.33;;;;;;;1.08;59.89;97519.78;4891639;29;20207;-66
2024/01/09 08:54:00;;;;;;;13.00;7.43;;;;;;;1.24;58.40;97510.38;4891971;29;20250;-64
2024/01/09 08:56:27;;;;;;;11.77;6.57;;;;;;;1.50;59.42;97512.03;4891858;29;20880;-64
2024/01/09 08:58:54;;;;;;;13.40;6.23;;;;;;;1.65;56.37;97489.00;4899791;29;20282;-64
2024/01/09 09:01:21;;;;;;;14.40;7.30;;;;;;;1.80;57.23;97490.66;4891514;29;20726;-66
2024/01/09 09:03:49;;;;;;;12.73;7.40;;;;;;;1.90;55.33;97494.84;4893086;29;20202;-64
2024/01/09 09:06:16;;;;;;;16.13;8.87;;;;;;;1.30;57.19;97469.59;4893179;29;20203;-65
2024/01/09 09:08:44;;;;;;;11.67;5.33;;;;;;;0.26;57.38;97502.75;4891046;29;20275;-65
2024/01/09 09:11:15;;;;;;;12.10;6.20;;;;;;;0.56;58.50;97495.13;4892699;29;20214;-64
2024/01/09 09:13:43;;;;;;;13.77;6.97;;;;;;;1.00;57.45;97516.38;4892638;29;20686;-64
2024/01/09 09:16:10;;;;;;;10.43;5.00;;;;;;;0.37;57.25;97493.44;4892400;29;20716;-64
2024/01/09 09:18:37;;;;;;;7.70;4.23;;;;;;;0.43;58.35;97541.84;4893194;29;20258;-64
2024/01/09 09:21:05;;;;;;;13.77;6.70;;;;;;;0.57;57.16;97543.56;4892255;29;20231;-65
2024/01/09 09:23:33;;;;;;;11.43;5.83;;;;;;;0.91;56.60;97538.50;4891839;29;20605;-64
2024/01/09 09:26:01;;;;;;;15.43;7.93;;;;;;;1.02;57.32;97527.44;4892614;29;20203;-65
2024/01/09 09:28:28;;;;;;;15.50;7.13;;;;;;;1.19;57.21;97535.06;4892653;29;20206;-66
2024/01/09 09:31:11;;;;;;;17.97;7.63;;;;;;;1.25;55.88;97530.81;4892540;29;20207;-65
2024/01/09 09:33:41;;;;;;;16.50;7.67;;;;;;;0.70;56.19;97524.88;4892353;29;20262;-63
2024/01/09 09:36:11;;;;;;;13.60;7.13;;;;;;;1.04;56.03;97514.66;4892633;29;20298;-68
2024/01/09 09:38:38;;;;;;;13.80;7.40;;;;;;;1.28;55.73;97520.56;4891985;29;20657;-66
2024/01/09 09:41:15;;;;;;;14.50;6.97;;;;;;;0.86;54.59;97514.69;4891280;29;20694;-66
2024/01/09 09:43:50;;;;;;;12.33;5.67;;;;;;;0.36;54.64;97519.75;4890830;29;20230;-67
2024/01/09 09:46:26;;;;;;;12.57;6.30;;;;;;;0.43;56.12;97513.81;4892004;29;20234;-65
2024/01/09 09:48:55;;;;;;;15.40;7.43;;;;;;;0.21;56.38;97502.75;4892505;29;20226;-64
2024/01/09 09:51:24;;;;;;;15.87;7.33;;;;;;;0.46;57.60;97529.09;4891848;29;20225;-66
2024/01/09 09:53:54;;;;;;;21.07;8.47;;;;;;;0.82;56.43;97522.31;4892872;29;20210;-65
2024/01/09 09:56:24;;;;;;;21.80;7.53;;;;;;;1.08;57.10;97521.47;4891890;29;20242;-63
2024/01/09 09:58:51;;;;;;;24.47;11.40;;;;;;;1.15;54.26;97525.72;4891794;29;20203;-64
2024/01/09 10:01:22;;;;;;;21.00;9.10;;;;;;;0.61;55.16;97524.03;4891698;29;20231;-64
2024/01/09 10:04:19;;;;;;;16.87;7.97;;;;;;;0.54;54.46;97522.31;4891852;29;20543;-65
2024/01/09 10:06:47;;;;;;;15.60;7.80;;;;;;;0.65;54.47;97530.81;4882959;29;20690;-64
2024/01/09 10:09:14;;;;;;;14.67;7.57;;;;;;;0.58;54.86;97534.19;4891372;29;20659;-64
2024/01/09 10:11:42;;;;;;;20.13;6.93;;;;;;;-0.23;54.56;97522.97;4890452;29;20225;-69
2024/01/09 10:14:10;;;;;;;280.67;82.33;;;;;;;-0.67;54.98;97527.00;4891532;29;20203;-67
2024/01/09 10:16:50;;;;;;;43.77;11.50;;;;;;;-0.72;54.74;97525.28;4891251;29;20332;-64
2024/01/09 10:19:17;;;;;;;50.23;21.43;;;;;;;-0.43;55.07;97531.34;4891847;29;20210;-64
2024/01/09 10:21:45;;;;;;;19.03;8.00;;;;;;;-0.18;54.79;97521.31;4891339;29;20231;-65
2024/01/09 10:24:16;;;;;;;20.80;8.57;;;;;;;0.21;54.36;97523.13;4890259;29;20211;-64
2024/01/09 10:26:44;;;;;;;19.50;7.90;;;;;;;-0.73;53.38;97524.44;4891006;29;20209;-66
2024/01/09 10:29:12;;;;;;;16.27;6.50;;;;;;;-0.61;55.26;97521.97;4891351;29;20206;-68
2024/01/09 10:31:44;;;;;;;17.00;7.90;;;;;;;-0.57;54.81;97520.28;4891658;29;20264;-66
2024/01/09 10:34:12;;;;;;;17.80;7.63;;;;;;;-0.11;55.20;97520.50;4891339;29;20210;-65
2024/01/09 10:36:40;;;;;;;21.00;10.00;;;;;;;0.43;55.04;97532.50;4891561;29;20199;-65
2024/01/09 10:39:09;;;;;;;20.53;9.20;;;;;;;0.48;53.62;97535.91;4891533;29;20262;-66
2024/01/09 10:41:36;;;;;;;22.13;9.93;;;;;;;0.54;54.58;97537.59;4890166;29;20610;-66
2024/01/09 10:44:03;;;;;;;19.20;7.83;;;;;;;0.12;54.54;97520.56;4891373;29;20271;-64
2024/01/09 10:46:35;;;;;;;25.00;10.20;;;;;;;0.26;54.13;97516.34;4891092;29;20313;-64
2024/01/09 10:49:04;;;;;;;16.33;7.13;;;;;;;0.22;53.77;97529.91;4890162;29;20241;-64
2024/01/09 10:51:33;;;;;;;25.73;8.83;;;;;;;0.12;53.22;97534.97;4889454;29;20206;-64
2024/01/09 10:54:03;;;;;;;26.60;7.93;;;;;;;-0.46;52.27;97521.19;4891135;29;20218;-66
2024/01/09 10:56:31;;;;;;;14.77;6.13;;;;;;;-0.48;53.85;97533.91;4891225;29;20206;-64
2024/01/09 10:58:59;;;;;;;22.60;8.23;;;;;;;-0.74;53.54;97520.19;4891532;29;20609;-64
2024/01/09 11:01:26;;;;;;;20.50;7.83;;;;;;;-0.42;54.39;97539.03;4889446;29;20652;-64
2024/01/09 11:03:53;;;;;;;20.97;8.20;;;;;;;-0.07;53.03;97523.88;4890314;29;20199;-63
2024/01/09 11:06:21;;;;;;;26.43;7.47;;;;;;;-0.35;53.72;97530.56;4891017;29;20206;-67
2024/01/09 11:08:58;;;;;;;18.43;7.33;;;;;;;0.07;53.72;97537.50;4890966;29;20207;-64
2024/01/09 11:11:28;;;;;;;18.37;7.67;;;;;;;0.03;55.11;97530.72;4891125;29;20207;-66
2024/01/09 11:14:00;;;;;;;17.40;8.50;;;;;;;0.32;56.32;97531.63;4890412;29;20203;-67
2024/01/09 11:16:31;;;;;;;20.60;9.63;;;;;;;0.53;55.09;97529.13;4890424;29;20254;-64
2024/01/09 11:19:01;;;;;;;15.87;7.33;;;;;;;0.61;53.35;97540.19;4890126;29;20203;-66
2024/01/09 11:21:28;;;;;;;20.53;7.97;;;;;;;-0.37;53.97;97533.97;4890411;29;20270;-64
2024/01/09 11:23:57;;;;;;;14.37;6.50;;;;;;;-0.63;55.13;97559.25;4891086;29;20628;-68
2024/01/09 11:26:29;;;;;;;16.03;7.43;;;;;;;-0.64;55.24;97544.84;4890243;29;20202;-65
2024/01/09 11:28:58;;;;;;;18.43;7.43;;;;;;;-0.53;54.83;97519.44;4890909;29;20293;-65
2024/01/09 11:31:29;;;;;;;15.50;7.17;;;;;;;-0.69;55.52;97559.22;4888742;29;20199;-64
2024/01/09 11:33:57;;;;;;;21.93;8.20;;;;;;;-0.71;56.02;97552.41;4890754;29;20279;-66
2024/01/09 11:36:37;;;;;;;17.33;7.70;;;;;;;-0.73;55.47;97524.44;4890865;29;20207;-65
2024/01/09 11:39:09;;;;;;;18.40;7.50;;;;;;;-0.60;54.53;97538.94;4890350;29;20698;-67